キンシャサ の空港の天気 - METARとTAF

キンシャサ/ヌジリ国際空港 ( FZAA / FIH ) - コンゴ民主共和国 キンシャサ
飛行場実況気象(Metar)
観測時間10/19 19:00 WAT (10/19 18:00 UTC)
風向・風速静穏 0m/s
視程8000m
天気現象
全天の4割程度の雲 雲底高度 670m
少しの雲 雲底高度 910m
気温31℃
湿度55%
気圧1008hPa
METARFZAA 191800Z 00000KT 8000 SCT022 FEW030CB 31/21 Q1008 BECMG TS
過去の天気等 Google飛行場航空写真 Wunderground天気予報

過去48時間のMETAR

飛行場予報(TAF)
発表時間: 10/19 18:00 WAT (10/19 17:00 UTC)
予報対象時間: 19日19時 WAT ~ 21日1時 WAT
風向・風速北北西 3m/s
視程10km以上
全天の4割程度の雲 雲底高度 610m
少しの積乱雲 雲底高度 910m
19日19時 WAT ~ 19日22時 WAT に 確率 30% で一時的に
風向・風速東 8m/s
視程7000m
天気現象弱い雷雨
19日23時 WAT ~ 20日1時 WAT に徐々に
風向・風速南西 2m/s
全天の8割程度の雲 雲底高度 490m
20日12時 WAT から
風向・風速北 6m/s
視程10km以上
少しの雲 雲底高度 760m
少しの積乱雲 雲底高度 980m
TAF FZAA 191700Z 1918/2024 34006KT 9999 SCT020 FEW030CB
PROB30 TEMPO 1918/1921 09016KT 7000 -TSRA
BECMG 1922/2000 23004KT BKN016
FM201100 36012KT 9999 FEW025 FEW032CB